sensor_id;sensor_type;location;lat;lon;timestamp;P1;durP1;ratioP1;P2;durP2;ratioP2
74528;SDS011;63009;52.584;5.932;2024-02-26T00:01:24;13.23;;;5.95;;
74528;SDS011;63009;52.584;5.932;2024-02-26T00:03:50;12.02;;;5.93;;
74528;SDS011;63009;52.584;5.932;2024-02-26T00:06:15;14.40;;;6.00;;
74528;SDS011;63009;52.584;5.932;2024-02-26T00:08:40;12.88;;;5.82;;
74528;SDS011;63009;52.584;5.932;2024-02-26T00:11:06;14.50;;;6.57;;
74528;SDS011;63009;52.584;5.932;2024-02-26T00:13:31;12.80;;;6.22;;
74528;SDS011;63009;52.584;5.932;2024-02-26T00:15:56;15.15;;;6.20;;
74528;SDS011;63009;52.584;5.932;2024-02-26T00:18:22;14.07;;;6.65;;
74528;SDS011;63009;52.584;5.932;2024-02-26T00:20:47;14.35;;;7.13;;
74528;SDS011;63009;52.584;5.932;2024-02-26T00:23:14;13.70;;;6.43;;
74528;SDS011;63009;52.584;5.932;2024-02-26T00:25:40;15.60;;;7.15;;
74528;SDS011;63009;52.584;5.932;2024-02-26T00:28:07;14.73;;;7.05;;
74528;SDS011;63009;52.584;5.932;2024-02-26T00:30:33;14.68;;;6.47;;
74528;SDS011;63009;52.584;5.932;2024-02-26T00:32:58;15.07;;;6.75;;
74528;SDS011;63009;52.584;5.932;2024-02-26T00:35:23;13.30;;;6.68;;
74528;SDS011;63009;52.584;5.932;2024-02-26T00:37:49;15.20;;;6.38;;
74528;SDS011;63009;52.584;5.932;2024-02-26T00:40:14;15.15;;;7.05;;
74528;SDS011;63009;52.584;5.932;2024-02-26T00:42:39;15.10;;;6.95;;
74528;SDS011;63009;52.584;5.932;2024-02-26T00:45:10;14.32;;;6.75;;
74528;SDS011;63009;52.584;5.932;2024-02-26T00:47:35;14.80;;;6.45;;
74528;SDS011;63009;52.584;5.932;2024-02-26T00:50:01;13.38;;;6.55;;
74528;SDS011;63009;52.584;5.932;2024-02-26T00:52:27;15.95;;;6.90;;
74528;SDS011;63009;52.584;5.932;2024-02-26T00:54:52;15.88;;;7.07;;
74528;SDS011;63009;52.584;5.932;2024-02-26T00:57:18;16.08;;;7.43;;
74528;SDS011;63009;52.584;5.932;2024-02-26T00:59:43;14.65;;;6.68;;
74528;SDS011;63009;52.584;5.932;2024-02-26T01:02:08;15.32;;;6.72;;
74528;SDS011;63009;52.584;5.932;2024-02-26T01:04:34;16.13;;;7.72;;
74528;SDS011;63009;52.584;5.932;2024-02-26T01:06:59;18.13;;;7.88;;
74528;SDS011;63009;52.584;5.932;2024-02-26T01:09:24;14.15;;;6.78;;
74528;SDS011;63009;52.584;5.932;2024-02-26T01:11:50;12.98;;;6.82;;
74528;SDS011;63009;52.584;5.932;2024-02-26T01:14:15;16.58;;;7.13;;
74528;SDS011;63009;52.584;5.932;2024-02-26T01:16:41;15.32;;;7.35;;
74528;SDS011;63009;52.584;5.932;2024-02-26T01:19:06;15.90;;;7.38;;
74528;SDS011;63009;52.584;5.932;2024-02-26T01:21:31;18.45;;;7.93;;
74528;SDS011;63009;52.584;5.932;2024-02-26T01:23:57;15.18;;;7.25;;
74528;SDS011;63009;52.584;5.932;2024-02-26T01:26:22;16.02;;;7.72;;
74528;SDS011;63009;52.584;5.932;2024-02-26T01:28:48;16.98;;;7.28;;
74528;SDS011;63009;52.584;5.932;2024-02-26T01:31:13;15.43;;;7.60;;
74528;SDS011;63009;52.584;5.932;2024-02-26T01:33:39;16.63;;;8.13;;
74528;SDS011;63009;52.584;5.932;2024-02-26T01:36:04;17.00;;;7.57;;
74528;SDS011;63009;52.584;5.932;2024-02-26T01:38:29;17.77;;;7.97;;
74528;SDS011;63009;52.584;5.932;2024-02-26T01:40:55;16.42;;;7.90;;
74528;SDS011;63009;52.584;5.932;2024-02-26T01:43:20;15.85;;;7.50;;
74528;SDS011;63009;52.584;5.932;2024-02-26T01:45:46;16.90;;;7.40;;
74528;SDS011;63009;52.584;5.932;2024-02-26T01:48:11;16.50;;;7.05;;
74528;SDS011;63009;52.584;5.932;2024-02-26T01:50:37;16.77;;;7.50;;
74528;SDS011;63009;52.584;5.932;2024-02-26T01:53:03;17.80;;;7.97;;
74528;SDS011;63009;52.584;5.932;2024-02-26T01:55:29;17.33;;;7.78;;
74528;SDS011;63009;52.584;5.932;2024-02-26T01:57:55;15.15;;;7.75;;
74528;SDS011;63009;52.584;5.932;2024-02-26T02:00:20;14.93;;;7.38;;
74528;SDS011;63009;52.584;5.932;2024-02-26T02:02:46;17.30;;;7.50;;
74528;SDS011;63009;52.584;5.932;2024-02-26T02:05:14;19.25;;;7.63;;
74528;SDS011;63009;52.584;5.932;2024-02-26T02:07:42;16.20;;;6.68;;
74528;SDS011;63009;52.584;5.932;2024-02-26T02:10:08;16.48;;;7.45;;
74528;SDS011;63009;52.584;5.932;2024-02-26T02:12:34;16.38;;;8.10;;
74528;SDS011;63009;52.584;5.932;2024-02-26T02:15:01;13.85;;;6.45;;
74528;SDS011;63009;52.584;5.932;2024-02-26T02:17:27;15.32;;;7.28;;
74528;SDS011;63009;52.584;5.932;2024-02-26T02:19:53;16.88;;;8.10;;
74528;SDS011;63009;52.584;5.932;2024-02-26T02:22:18;19.38;;;8.43;;
74528;SDS011;63009;52.584;5.932;2024-02-26T02:24:44;18.33;;;8.00;;
74528;SDS011;63009;52.584;5.932;2024-02-26T02:27:10;16.35;;;7.55;;
74528;SDS011;63009;52.584;5.932;2024-02-26T02:29:35;15.48;;;7.65;;
74528;SDS011;63009;52.584;5.932;2024-02-26T02:32:02;17.42;;;7.43;;
74528;SDS011;63009;52.584;5.932;2024-02-26T02:34:28;15.98;;;7.78;;
74528;SDS011;63009;52.584;5.932;2024-02-26T02:36:54;17.10;;;7.90;;
74528;SDS011;63009;52.584;5.932;2024-02-26T02:39:20;18.77;;;9.13;;
74528;SDS011;63009;52.584;5.932;2024-02-26T02:41:46;17.25;;;7.88;;
74528;SDS011;63009;52.584;5.932;2024-02-26T02:44:11;18.00;;;7.97;;
74528;SDS011;63009;52.584;5.932;2024-02-26T02:46:37;17.80;;;7.88;;
74528;SDS011;63009;52.584;5.932;2024-02-26T02:49:03;16.80;;;7.60;;
74528;SDS011;63009;52.584;5.932;2024-02-26T02:51:28;18.27;;;7.82;;
74528;SDS011;63009;52.584;5.932;2024-02-26T02:53:53;19.77;;;8.02;;
74528;SDS011;63009;52.584;5.932;2024-02-26T02:56:19;17.70;;;7.78;;
74528;SDS011;63009;52.584;5.932;2024-02-26T02:58:44;17.63;;;8.00;;
74528;SDS011;63009;52.584;5.932;2024-02-26T03:01:10;19.73;;;7.97;;
74528;SDS011;63009;52.584;5.932;2024-02-26T03:03:35;15.10;;;7.65;;
74528;SDS011;63009;52.584;5.932;2024-02-26T03:06:02;19.65;;;8.27;;
74528;SDS011;63009;52.584;5.932;2024-02-26T03:08:28;19.88;;;8.43;;
74528;SDS011;63009;52.584;5.932;2024-02-26T03:10:54;16.50;;;8.02;;
74528;SDS011;63009;52.584;5.932;2024-02-26T03:13:19;20.20;;;8.82;;
74528;SDS011;63009;52.584;5.932;2024-02-26T03:15:45;22.40;;;8.43;;
74528;SDS011;63009;52.584;5.932;2024-02-26T03:18:10;19.00;;;8.10;;
74528;SDS011;63009;52.584;5.932;2024-02-26T03:20:35;18.13;;;7.88;;
74528;SDS011;63009;52.584;5.932;2024-02-26T03:23:02;18.90;;;9.15;;
74528;SDS011;63009;52.584;5.932;2024-02-26T03:25:27;20.10;;;8.30;;
74528;SDS011;63009;52.584;5.932;2024-02-26T03:27:53;21.20;;;8.82;;
74528;SDS011;63009;52.584;5.932;2024-02-26T03:30:18;20.67;;;9.38;;
74528;SDS011;63009;52.584;5.932;2024-02-26T03:32:43;20.80;;;9.43;;
74528;SDS011;63009;52.584;5.932;2024-02-26T03:35:09;21.70;;;9.40;;
74528;SDS011;63009;52.584;5.932;2024-02-26T03:37:34;21.52;;;9.38;;
74528;SDS011;63009;52.584;5.932;2024-02-26T03:39:59;19.85;;;8.88;;
74528;SDS011;63009;52.584;5.932;2024-02-26T03:42:26;21.40;;;9.45;;
74528;SDS011;63009;52.584;5.932;2024-02-26T03:44:51;23.38;;;10.63;;
74528;SDS011;63009;52.584;5.932;2024-02-26T03:47:17;26.85;;;10.70;;
74528;SDS011;63009;52.584;5.932;2024-02-26T03:49:42;21.67;;;9.80;;
74528;SDS011;63009;52.584;5.932;2024-02-26T03:52:07;23.80;;;9.87;;
74528;SDS011;63009;52.584;5.932;2024-02-26T03:54:33;26.53;;;11.03;;
74528;SDS011;63009;52.584;5.932;2024-02-26T03:56:58;22.58;;;9.98;;
74528;SDS011;63009;52.584;5.932;2024-02-26T03:59:23;26.70;;;10.00;;
74528;SDS011;63009;52.584;5.932;2024-02-26T04:01:50;29.67;;;11.95;;
74528;SDS011;63009;52.584;5.932;2024-02-26T04:04:15;28.30;;;11.05;;
74528;SDS011;63009;52.584;5.932;2024-02-26T04:06:44;26.35;;;11.27;;
74528;SDS011;63009;52.584;5.932;2024-02-26T04:09:11;21.92;;;10.15;;
74528;SDS011;63009;52.584;5.932;2024-02-26T04:11:36;27.83;;;12.05;;
74528;SDS011;63009;52.584;5.932;2024-02-26T04:14:01;27.83;;;11.57;;
74528;SDS011;63009;52.584;5.932;2024-02-26T04:16:28;26.02;;;11.05;;
74528;SDS011;63009;52.584;5.932;2024-02-26T04:18:53;26.10;;;11.48;;
74528;SDS011;63009;52.584;5.932;2024-02-26T04:21:19;27.90;;;12.10;;
74528;SDS011;63009;52.584;5.932;2024-02-26T04:23:45;26.70;;;12.25;;
74528;SDS011;63009;52.584;5.932;2024-02-26T04:26:10;29.10;;;12.68;;
74528;SDS011;63009;52.584;5.932;2024-02-26T04:28:36;29.23;;;12.18;;
74528;SDS011;63009;52.584;5.932;2024-02-26T04:31:01;26.88;;;11.35;;
74528;SDS011;63009;52.584;5.932;2024-02-26T04:33:27;26.38;;;12.20;;
74528;SDS011;63009;52.584;5.932;2024-02-26T04:35:52;29.10;;;13.50;;
74528;SDS011;63009;52.584;5.932;2024-02-26T04:38:18;23.75;;;12.52;;
74528;SDS011;63009;52.584;5.932;2024-02-26T04:40:43;29.95;;;12.25;;
74528;SDS011;63009;52.584;5.932;2024-02-26T04:43:08;31.63;;;13.25;;
74528;SDS011;63009;52.584;5.932;2024-02-26T04:45:34;27.75;;;12.75;;
74528;SDS011;63009;52.584;5.932;2024-02-26T04:47:59;26.95;;;11.95;;
74528;SDS011;63009;52.584;5.932;2024-02-26T04:50:25;31.15;;;13.50;;
74528;SDS011;63009;52.584;5.932;2024-02-26T04:52:50;31.48;;;13.73;;
74528;SDS011;63009;52.584;5.932;2024-02-26T04:55:15;29.05;;;13.00;;
74528;SDS011;63009;52.584;5.932;2024-02-26T04:57:41;28.10;;;13.23;;
74528;SDS011;63009;52.584;5.932;2024-02-26T05:00:06;32.42;;;14.63;;
74528;SDS011;63009;52.584;5.932;2024-02-26T05:02:33;28.85;;;13.20;;
74528;SDS011;63009;52.584;5.932;2024-02-26T05:05:03;27.52;;;12.88;;
74528;SDS011;63009;52.584;5.932;2024-02-26T05:07:29;31.48;;;14.00;;
74528;SDS011;63009;52.584;5.932;2024-02-26T05:09:54;29.65;;;13.27;;
74528;SDS011;63009;52.584;5.932;2024-02-26T05:12:20;27.83;;;12.88;;
74528;SDS011;63009;52.584;5.932;2024-02-26T05:14:46;27.23;;;13.38;;
74528;SDS011;63009;52.584;5.932;2024-02-26T05:17:11;29.05;;;12.70;;
74528;SDS011;63009;52.584;5.932;2024-02-26T05:19:37;30.52;;;12.52;;
74528;SDS011;63009;52.584;5.932;2024-02-26T05:22:02;32.55;;;11.25;;
74528;SDS011;63009;52.584;5.932;2024-02-26T05:24:27;26.27;;;11.60;;
74528;SDS011;63009;52.584;5.932;2024-02-26T05:26:53;26.15;;;12.00;;
74528;SDS011;63009;52.584;5.932;2024-02-26T05:29:20;26.45;;;12.15;;
74528;SDS011;63009;52.584;5.932;2024-02-26T05:31:45;28.45;;;12.32;;
74528;SDS011;63009;52.584;5.932;2024-02-26T05:34:11;24.55;;;10.05;;
74528;SDS011;63009;52.584;5.932;2024-02-26T05:36:36;25.77;;;12.00;;
74528;SDS011;63009;52.584;5.932;2024-02-26T05:39:01;27.27;;;13.60;;
74528;SDS011;63009;52.584;5.932;2024-02-26T05:41:28;24.27;;;11.68;;
74528;SDS011;63009;52.584;5.932;2024-02-26T05:43:54;24.85;;;11.68;;
74528;SDS011;63009;52.584;5.932;2024-02-26T05:46:20;26.45;;;11.02;;
74528;SDS011;63009;52.584;5.932;2024-02-26T05:48:47;24.08;;;11.07;;
74528;SDS011;63009;52.584;5.932;2024-02-26T05:51:13;23.13;;;9.23;;
74528;SDS011;63009;52.584;5.932;2024-02-26T05:53:38;26.48;;;11.18;;
74528;SDS011;63009;52.584;5.932;2024-02-26T05:56:03;23.85;;;11.05;;
74528;SDS011;63009;52.584;5.932;2024-02-26T05:58:29;23.23;;;9.65;;
74528;SDS011;63009;52.584;5.932;2024-02-26T06:00:54;21.23;;;9.52;;
74528;SDS011;63009;52.584;5.932;2024-02-26T06:03:19;21.70;;;9.68;;
74528;SDS011;63009;52.584;5.932;2024-02-26T06:05:45;22.65;;;9.38;;
74528;SDS011;63009;52.584;5.932;2024-02-26T06:08:11;18.80;;;9.07;;
74528;SDS011;63009;52.584;5.932;2024-02-26T06:10:36;19.35;;;8.48;;
74528;SDS011;63009;52.584;5.932;2024-02-26T06:13:02;17.33;;;7.88;;
74528;SDS011;63009;52.584;5.932;2024-02-26T06:15:27;17.83;;;8.30;;
74528;SDS011;63009;52.584;5.932;2024-02-26T06:17:52;19.05;;;8.68;;
74528;SDS011;63009;52.584;5.932;2024-02-26T06:20:18;18.98;;;8.43;;
74528;SDS011;63009;52.584;5.932;2024-02-26T06:22:43;20.60;;;8.82;;
74528;SDS011;63009;52.584;5.932;2024-02-26T06:25:09;17.33;;;8.02;;
74528;SDS011;63009;52.584;5.932;2024-02-26T06:27:35;18.90;;;7.78;;
74528;SDS011;63009;52.584;5.932;2024-02-26T06:30:00;14.80;;;6.78;;
74528;SDS011;63009;52.584;5.932;2024-02-26T06:32:26;15.85;;;7.50;;
74528;SDS011;63009;52.584;5.932;2024-02-26T06:34:53;19.50;;;7.40;;
74528;SDS011;63009;52.584;5.932;2024-02-26T06:37:19;17.23;;;7.63;;
74528;SDS011;63009;52.584;5.932;2024-02-26T06:39:44;16.60;;;6.93;;
74528;SDS011;63009;52.584;5.932;2024-02-26T06:42:09;12.70;;;5.72;;
74528;SDS011;63009;52.584;5.932;2024-02-26T06:44:35;15.60;;;6.80;;
74528;SDS011;63009;52.584;5.932;2024-02-26T06:47:00;15.97;;;6.70;;
74528;SDS011;63009;52.584;5.932;2024-02-26T06:49:26;17.08;;;6.65;;
74528;SDS011;63009;52.584;5.932;2024-02-26T06:51:52;14.52;;;6.95;;
74528;SDS011;63009;52.584;5.932;2024-02-26T06:54:18;15.82;;;7.00;;
74528;SDS011;63009;52.584;5.932;2024-02-26T06:56:43;14.98;;;5.93;;
74528;SDS011;63009;52.584;5.932;2024-02-26T06:59:09;18.73;;;6.68;;
74528;SDS011;63009;52.584;5.932;2024-02-26T07:01:34;14.85;;;5.93;;
74528;SDS011;63009;52.584;5.932;2024-02-26T07:04:00;16.23;;;6.35;;
74528;SDS011;63009;52.584;5.932;2024-02-26T07:06:25;13.95;;;7.10;;
74528;SDS011;63009;52.584;5.932;2024-02-26T07:08:52;15.40;;;5.68;;
74528;SDS011;63009;52.584;5.932;2024-02-26T07:11:17;15.15;;;6.43;;
74528;SDS011;63009;52.584;5.932;2024-02-26T07:13:44;15.45;;;6.45;;
74528;SDS011;63009;52.584;5.932;2024-02-26T07:16:09;13.75;;;5.70;;
74528;SDS011;63009;52.584;5.932;2024-02-26T07:18:37;14.30;;;5.85;;
74528;SDS011;63009;52.584;5.932;2024-02-26T07:21:03;11.98;;;4.43;;
74528;SDS011;63009;52.584;5.932;2024-02-26T07:23:29;12.30;;;5.38;;
74528;SDS011;63009;52.584;5.932;2024-02-26T07:25:54;14.38;;;5.43;;
74528;SDS011;63009;52.584;5.932;2024-02-26T07:28:19;11.40;;;4.35;;
74528;SDS011;63009;52.584;5.932;2024-02-26T07:30:45;11.45;;;4.80;;
74528;SDS011;63009;52.584;5.932;2024-02-26T07:33:10;10.38;;;4.90;;
74528;SDS011;63009;52.584;5.932;2024-02-26T07:35:36;11.48;;;4.55;;
74528;SDS011;63009;52.584;5.932;2024-02-26T07:38:03;15.77;;;4.70;;
74528;SDS011;63009;52.584;5.932;2024-02-26T07:42:57;11.38;;;4.32;;
74528;SDS011;63009;52.584;5.932;2024-02-26T07:45:22;10.15;;;4.20;;
74528;SDS011;63009;52.584;5.932;2024-02-26T07:47:48;11.15;;;4.38;;
74528;SDS011;63009;52.584;5.932;2024-02-26T07:50:13;11.15;;;5.53;;
74528;SDS011;63009;52.584;5.932;2024-02-26T07:52:39;12.10;;;4.15;;
74528;SDS011;63009;52.584;5.932;2024-02-26T07:55:05;12.23;;;4.25;;
74528;SDS011;63009;52.584;5.932;2024-02-26T07:57:33;10.80;;;4.60;;
74528;SDS011;63009;52.584;5.932;2024-02-26T07:59:59;14.35;;;5.90;;
74528;SDS011;63009;52.584;5.932;2024-02-26T08:02:24;13.30;;;4.85;;
74528;SDS011;63009;52.584;5.932;2024-02-26T08:04:50;12.88;;;5.47;;
74528;SDS011;63009;52.584;5.932;2024-02-26T08:07:15;9.98;;;4.30;;
74528;SDS011;63009;52.584;5.932;2024-02-26T08:09:40;11.02;;;4.38;;
74528;SDS011;63009;52.584;5.932;2024-02-26T08:12:06;10.60;;;4.80;;
74528;SDS011;63009;52.584;5.932;2024-02-26T08:14:31;9.55;;;3.65;;
74528;SDS011;63009;52.584;5.932;2024-02-26T08:16:57;10.57;;;4.25;;
74528;SDS011;63009;52.584;5.932;2024-02-26T08:19:23;11.52;;;5.63;;
74528;SDS011;63009;52.584;5.932;2024-02-26T08:21:49;10.65;;;4.05;;
74528;SDS011;63009;52.584;5.932;2024-02-26T08:24:14;10.93;;;4.38;;
74528;SDS011;63009;52.584;5.932;2024-02-26T08:26:40;9.95;;;4.18;;
74528;SDS011;63009;52.584;5.932;2024-02-26T08:29:05;11.38;;;3.78;;
74528;SDS011;63009;52.584;5.932;2024-02-26T08:31:30;10.63;;;4.15;;
74528;SDS011;63009;52.584;5.932;2024-02-26T08:33:56;12.55;;;4.70;;
74528;SDS011;63009;52.584;5.932;2024-02-26T08:36:21;10.15;;;3.72;;
74528;SDS011;63009;52.584;5.932;2024-02-26T08:38:46;9.93;;;3.67;;
74528;SDS011;63009;52.584;5.932;2024-02-26T08:41:12;8.70;;;3.92;;
74528;SDS011;63009;52.584;5.932;2024-02-26T08:43:38;10.50;;;4.15;;
74528;SDS011;63009;52.584;5.932;2024-02-26T08:46:03;10.02;;;4.68;;
74528;SDS011;63009;52.584;5.932;2024-02-26T08:48:29;10.05;;;3.78;;
74528;SDS011;63009;52.584;5.932;2024-02-26T08:50:54;11.65;;;4.85;;
74528;SDS011;63009;52.584;5.932;2024-02-26T08:53:20;12.98;;;4.60;;
74528;SDS011;63009;52.584;5.932;2024-02-26T08:55:46;10.15;;;3.95;;
74528;SDS011;63009;52.584;5.932;2024-02-26T08:58:11;8.68;;;3.38;;
74528;SDS011;63009;52.584;5.932;2024-02-26T09:00:36;11.70;;;4.75;;
74528;SDS011;63009;52.584;5.932;2024-02-26T09:03:02;10.73;;;4.30;;
74528;SDS011;63009;52.584;5.932;2024-02-26T09:05:28;10.70;;;4.43;;
74528;SDS011;63009;52.584;5.932;2024-02-26T09:07:53;10.23;;;4.28;;
74528;SDS011;63009;52.584;5.932;2024-02-26T09:10:20;9.80;;;4.20;;
74528;SDS011;63009;52.584;5.932;2024-02-26T09:12:45;11.73;;;4.32;;
74528;SDS011;63009;52.584;5.932;2024-02-26T09:15:11;11.85;;;4.13;;
74528;SDS011;63009;52.584;5.932;2024-02-26T09:17:36;10.50;;;4.57;;
74528;SDS011;63009;52.584;5.932;2024-02-26T09:20:02;10.93;;;4.65;;
74528;SDS011;63009;52.584;5.932;2024-02-26T09:22:28;10.80;;;4.35;;
74528;SDS011;63009;52.584;5.932;2024-02-26T09:24:54;9.10;;;3.50;;
74528;SDS011;63009;52.584;5.932;2024-02-26T09:27:19;10.02;;;3.78;;
74528;SDS011;63009;52.584;5.932;2024-02-26T09:29:44;8.85;;;3.60;;
74528;SDS011;63009;52.584;5.932;2024-02-26T09:32:10;11.55;;;4.93;;
74528;SDS011;63009;52.584;5.932;2024-02-26T09:34:35;10.57;;;4.50;;
74528;SDS011;63009;52.584;5.932;2024-02-26T09:37:01;9.65;;;3.78;;
74528;SDS011;63009;52.584;5.932;2024-02-26T09:39:27;10.40;;;4.30;;
74528;SDS011;63009;52.584;5.932;2024-02-26T09:41:53;11.30;;;4.25;;
74528;SDS011;63009;52.584;5.932;2024-02-26T09:44:19;10.07;;;4.75;;
74528;SDS011;63009;52.584;5.932;2024-02-26T09:46:48;9.52;;;3.85;;
74528;SDS011;63009;52.584;5.932;2024-02-26T09:49:16;9.15;;;3.53;;
74528;SDS011;63009;52.584;5.932;2024-02-26T09:51:43;9.77;;;4.38;;
74528;SDS011;63009;52.584;5.932;2024-02-26T09:54:09;10.38;;;5.32;;
74528;SDS011;63009;52.584;5.932;2024-02-26T09:56:36;9.73;;;4.10;;
74528;SDS011;63009;52.584;5.932;2024-02-26T09:59:04;9.50;;;4.25;;
74528;SDS011;63009;52.584;5.932;2024-02-26T10:01:35;10.88;;;4.43;;
74528;SDS011;63009;52.584;5.932;2024-02-26T10:04:04;10.10;;;4.00;;
74528;SDS011;63009;52.584;5.932;2024-02-26T10:06:30;8.90;;;3.60;;
74528;SDS011;63009;52.584;5.932;2024-02-26T10:08:58;9.27;;;3.50;;
74528;SDS011;63009;52.584;5.932;2024-02-26T10:11:24;11.15;;;4.97;;
74528;SDS011;63009;52.584;5.932;2024-02-26T10:13:50;11.40;;;4.55;;
74528;SDS011;63009;52.584;5.932;2024-02-26T10:16:16;12.40;;;4.75;;
74528;SDS011;63009;52.584;5.932;2024-02-26T10:18:45;11.07;;;4.78;;
74528;SDS011;63009;52.584;5.932;2024-02-26T10:21:10;12.38;;;4.63;;
74528;SDS011;63009;52.584;5.932;2024-02-26T10:23:36;10.27;;;4.10;;
74528;SDS011;63009;52.584;5.932;2024-02-26T10:26:01;10.85;;;4.28;;
74528;SDS011;63009;52.584;5.932;2024-02-26T10:28:27;9.93;;;4.22;;
74528;SDS011;63009;52.584;5.932;2024-02-26T10:30:54;10.75;;;4.05;;
74528;SDS011;63009;52.584;5.932;2024-02-26T10:33:20;12.13;;;4.78;;
74528;SDS011;63009;52.584;5.932;2024-02-26T10:35:46;10.52;;;3.78;;
74528;SDS011;63009;52.584;5.932;2024-02-26T10:38:12;10.60;;;4.03;;
74528;SDS011;63009;52.584;5.932;2024-02-26T10:40:38;10.52;;;4.72;;
74528;SDS011;63009;52.584;5.932;2024-02-26T10:43:04;11.02;;;3.75;;
74528;SDS011;63009;52.584;5.932;2024-02-26T10:45:29;10.85;;;3.72;;
74528;SDS011;63009;52.584;5.932;2024-02-26T10:47:54;9.33;;;3.80;;
74528;SDS011;63009;52.584;5.932;2024-02-26T10:50:20;9.50;;;3.83;;
74528;SDS011;63009;52.584;5.932;2024-02-26T10:52:45;9.13;;;3.63;;
74528;SDS011;63009;52.584;5.932;2024-02-26T10:55:13;10.23;;;4.22;;
74528;SDS011;63009;52.584;5.932;2024-02-26T10:57:43;9.43;;;4.00;;
74528;SDS011;63009;52.584;5.932;2024-02-26T11:00:10;8.70;;;3.88;;
74528;SDS011;63009;52.584;5.932;2024-02-26T11:05:05;10.00;;;3.78;;
74528;SDS011;63009;52.584;5.932;2024-02-26T11:07:31;9.88;;;3.83;;
74528;SDS011;63009;52.584;5.932;2024-02-26T11:10:00;9.93;;;3.90;;
74528;SDS011;63009;52.584;5.932;2024-02-26T11:12:29;8.73;;;3.35;;
74528;SDS011;63009;52.584;5.932;2024-02-26T11:14:55;10.75;;;4.25;;
74528;SDS011;63009;52.584;5.932;2024-02-26T11:17:23;9.35;;;3.88;;
74528;SDS011;63009;52.584;5.932;2024-02-26T11:19:51;9.68;;;4.22;;
74528;SDS011;63009;52.584;5.932;2024-02-26T11:22:18;10.68;;;3.90;;
74528;SDS011;63009;52.584;5.932;2024-02-26T11:24:46;10.73;;;4.70;;
74528;SDS011;63009;52.584;5.932;2024-02-26T11:27:14;8.95;;;3.42;;
74528;SDS011;63009;52.584;5.932;2024-02-26T11:29:49;12.40;;;4.10;;
74528;SDS011;63009;52.584;5.932;2024-02-26T11:32:17;10.90;;;4.00;;
74528;SDS011;63009;52.584;5.932;2024-02-26T11:34:43;9.88;;;3.88;;
74528;SDS011;63009;52.584;5.932;2024-02-26T11:37:15;8.98;;;3.45;;
74528;SDS011;63009;52.584;5.932;2024-02-26T11:39:42;12.27;;;4.28;;
74528;SDS011;63009;52.584;5.932;2024-02-26T11:42:09;8.30;;;3.53;;
74528;SDS011;63009;52.584;5.932;2024-02-26T11:44:50;9.70;;;3.97;;
74528;SDS011;63009;52.584;5.932;2024-02-26T11:47:20;9.88;;;3.53;;
74528;SDS011;63009;52.584;5.932;2024-02-26T11:49:46;8.45;;;3.28;;
74528;SDS011;63009;52.584;5.932;2024-02-26T11:52:13;11.88;;;4.35;;
74528;SDS011;63009;52.584;5.932;2024-02-26T11:54:49;9.43;;;3.65;;
74528;SDS011;63009;52.584;5.932;2024-02-26T12:02:45;8.75;;;3.33;;
74528;SDS011;63009;52.584;5.932;2024-02-26T12:07:42;10.45;;;3.47;;
74528;SDS011;63009;52.584;5.932;2024-02-26T12:10:54;9.30;;;3.58;;
74528;SDS011;63009;52.584;5.932;2024-02-26T12:13:05;7.85;;;2.95;;
74528;SDS011;63009;52.584;5.932;2024-02-26T12:15:36;9.50;;;3.40;;
74528;SDS011;63009;52.584;5.932;2024-02-26T12:18:02;9.15;;;3.20;;
74528;SDS011;63009;52.584;5.932;2024-02-26T12:20:29;9.52;;;3.88;;
74528;SDS011;63009;52.584;5.932;2024-02-26T12:22:57;8.55;;;3.60;;
74528;SDS011;63009;52.584;5.932;2024-02-26T12:25:24;8.50;;;2.88;;
74528;SDS011;63009;52.584;5.932;2024-02-26T12:27:51;8.55;;;3.38;;
74528;SDS011;63009;52.584;5.932;2024-02-26T12:30:18;8.50;;;3.10;;
74528;SDS011;63009;52.584;5.932;2024-02-26T12:32:44;8.70;;;3.42;;
74528;SDS011;63009;52.584;5.932;2024-02-26T12:35:10;10.25;;;3.25;;
74528;SDS011;63009;52.584;5.932;2024-02-26T12:37:36;9.45;;;3.90;;
74528;SDS011;63009;52.584;5.932;2024-02-26T12:40:03;8.70;;;3.22;;
74528;SDS011;63009;52.584;5.932;2024-02-26T12:42:33;8.25;;;3.38;;
74528;SDS011;63009;52.584;5.932;2024-02-26T12:45:07;9.88;;;3.58;;
74528;SDS011;63009;52.584;5.932;2024-02-26T12:47:35;7.93;;;3.50;;
74528;SDS011;63009;52.584;5.932;2024-02-26T12:50:02;7.97;;;3.08;;
74528;SDS011;63009;52.584;5.932;2024-02-26T12:52:29;9.45;;;3.78;;
74528;SDS011;63009;52.584;5.932;2024-02-26T12:54:56;8.07;;;3.53;;
74528;SDS011;63009;52.584;5.932;2024-02-26T12:57:21;10.77;;;4.22;;
74528;SDS011;63009;52.584;5.932;2024-02-26T12:59:47;9.90;;;4.03;;
74528;SDS011;63009;52.584;5.932;2024-02-26T13:02:13;8.63;;;3.70;;
74528;SDS011;63009;52.584;5.932;2024-02-26T13:04:39;9.88;;;3.63;;
74528;SDS011;63009;52.584;5.932;2024-02-26T13:07:05;8.85;;;3.88;;
74528;SDS011;63009;52.584;5.932;2024-02-26T13:09:33;10.57;;;4.00;;
74528;SDS011;63009;52.584;5.932;2024-02-26T13:12:00;8.52;;;3.55;;
74528;SDS011;63009;52.584;5.932;2024-02-26T13:14:29;9.60;;;3.78;;
74528;SDS011;63009;52.584;5.932;2024-02-26T13:16:59;8.05;;;3.10;;
74528;SDS011;63009;52.584;5.932;2024-02-26T13:19:25;8.18;;;3.50;;
74528;SDS011;63009;52.584;5.932;2024-02-26T13:21:52;8.63;;;3.33;;
74528;SDS011;63009;52.584;5.932;2024-02-26T13:24:22;7.10;;;2.50;;
74528;SDS011;63009;52.584;5.932;2024-02-26T13:26:54;7.60;;;3.10;;
74528;SDS011;63009;52.584;5.932;2024-02-26T13:29:20;6.95;;;2.70;;
74528;SDS011;63009;52.584;5.932;2024-02-26T13:31:45;8.43;;;2.90;;
74528;SDS011;63009;52.584;5.932;2024-02-26T13:34:11;7.35;;;2.63;;
74528;SDS011;63009;52.584;5.932;2024-02-26T13:36:49;7.13;;;2.45;;
74528;SDS011;63009;52.584;5.932;2024-02-26T13:39:20;8.07;;;3.00;;
74528;SDS011;63009;52.584;5.932;2024-02-26T13:41:46;7.10;;;2.65;;
74528;SDS011;63009;52.584;5.932;2024-02-26T13:46:37;7.70;;;3.25;;
74528;SDS011;63009;52.584;5.932;2024-02-26T13:49:07;7.53;;;2.53;;
74528;SDS011;63009;52.584;5.932;2024-02-26T13:51:33;7.40;;;2.50;;
74528;SDS011;63009;52.584;5.932;2024-02-26T13:54:00;11.48;;;3.10;;
74528;SDS011;63009;52.584;5.932;2024-02-26T13:56:26;7.82;;;2.80;;
74528;SDS011;63009;52.584;5.932;2024-02-26T13:58:51;11.85;;;3.33;;
74528;SDS011;63009;52.584;5.932;2024-02-26T14:01:17;8.35;;;2.92;;
74528;SDS011;63009;52.584;5.932;2024-02-26T14:03:42;8.15;;;2.92;;
74528;SDS011;63009;52.584;5.932;2024-02-26T14:06:08;7.15;;;2.58;;
74528;SDS011;63009;52.584;5.932;2024-02-26T14:08:34;7.07;;;2.50;;
74528;SDS011;63009;52.584;5.932;2024-02-26T14:11:02;7.50;;;2.65;;
74528;SDS011;63009;52.584;5.932;2024-02-26T14:13:29;9.45;;;3.40;;
74528;SDS011;63009;52.584;5.932;2024-02-26T14:15:55;10.30;;;3.13;;
74528;SDS011;63009;52.584;5.932;2024-02-26T14:18:21;11.07;;;3.63;;
74528;SDS011;63009;52.584;5.932;2024-02-26T14:20:46;9.48;;;3.05;;
74528;SDS011;63009;52.584;5.932;2024-02-26T14:23:11;8.32;;;3.08;;
74528;SDS011;63009;52.584;5.932;2024-02-26T14:25:37;9.13;;;3.28;;
74528;SDS011;63009;52.584;5.932;2024-02-26T14:28:02;8.57;;;3.00;;
74528;SDS011;63009;52.584;5.932;2024-02-26T14:30:28;9.85;;;3.60;;
74528;SDS011;63009;52.584;5.932;2024-02-26T14:32:54;9.55;;;3.15;;
74528;SDS011;63009;52.584;5.932;2024-02-26T14:35:20;10.38;;;3.88;;
74528;SDS011;63009;52.584;5.932;2024-02-26T14:37:45;10.50;;;4.30;;
74528;SDS011;63009;52.584;5.932;2024-02-26T14:40:12;11.23;;;4.38;;
74528;SDS011;63009;52.584;5.932;2024-02-26T14:42:38;11.38;;;4.05;;
74528;SDS011;63009;52.584;5.932;2024-02-26T14:45:03;11.00;;;4.00;;